Time;durP1;ratioP1;P1;durP2;ratioP2;P2;SDS_P1;SDS_P2;PMS_P1;PMS_P2;Temp;Humidity;BMP_temperature;BMP_pressure;BME280_temperature;BME280_humidity;BME280_pressure;Samples;Min_cycle;Max_cycle;Signal;HPM_P1;HPM_P2
2024/04/01 00:04:11;;;;;;;18.33;8.18;;;;;;;12.16;100.00;98081.50;10519366;28;20094;-40
2024/04/01 00:09:11;;;;;;;17.58;8.23;;;;;;;12.13;100.00;98090.25;10521180;28;20106;-39
2024/04/01 00:14:12;;;;;;;15.43;7.63;;;;;;;12.12;100.00;98087.66;10521884;28;20394;-39
2024/04/01 00:19:12;;;;;;;12.13;7.15;;;;;;;12.11;100.00;98081.53;10519354;28;20032;-39
2024/04/01 00:24:13;;;;;;;14.88;8.40;;;;;;;12.10;100.00;98078.94;10517560;28;20041;-39
2024/04/01 00:29:14;;;;;;;18.08;9.32;;;;;;;12.07;100.00;98078.09;10516682;28;20044;-39
2024/04/01 00:34:14;;;;;;;20.77;9.85;;;;;;;12.05;100.00;98071.13;10515383;28;20037;-39
2024/04/01 00:39:15;;;;;;;18.92;9.70;;;;;;;12.01;100.00;98072.91;10514891;28;20032;-39
2024/04/01 00:44:16;;;;;;;17.92;9.50;;;;;;;11.98;100.00;98070.34;10513317;28;20607;-39
2024/04/01 00:49:20;;;;;;;21.80;10.88;;;;;;;11.94;100.00;98067.78;10512243;28;20046;-39
2024/04/01 00:54:20;;;;;;;33.08;14.77;;;;;;;11.92;100.00;98035.50;10510144;28;20097;-39
2024/04/01 00:59:21;;;;;;;22.52;11.10;;;;;;;11.92;100.00;98009.34;10491674;28;20040;-39
2024/04/01 01:04:22;;;;;;;20.00;9.00;;;;;;;11.82;100.00;97991.09;10508844;28;20044;-38
2024/04/01 01:09:22;;;;;;;13.70;6.80;;;;;;;11.85;100.00;97979.75;10510574;28;20093;-39
2024/04/01 01:14:23;;;;;;;10.85;5.78;;;;;;;11.83;100.00;97995.47;10527221;28;20036;-38
2024/04/01 01:19:23;;;;;;;9.90;5.80;;;;;;;11.81;100.00;97997.22;10525893;28;20024;-39
2024/04/01 01:24:24;;;;;;;10.15;4.30;;;;;;;11.80;100.00;97971.06;10525111;28;20089;-39
2024/04/01 01:29:29;;;;;;;8.77;4.18;;;;;;;11.78;100.00;97978.94;10523873;28;20085;-39
2024/04/01 01:34:33;;;;;;;9.93;4.50;;;;;;;11.86;100.00;97976.25;10522393;28;20085;-39
2024/04/01 01:39:34;;;;;;;7.80;4.45;;;;;;;11.90;100.00;97992.81;10521620;28;20028;-39
2024/04/01 01:44:35;;;;;;;12.57;5.13;;;;;;;11.91;100.00;98012.84;10521050;28;20047;-39
2024/04/01 01:49:35;;;;;;;11.15;5.65;;;;;;;11.88;100.00;98034.69;10521074;28;20024;-39
2024/04/01 01:54:36;;;;;;;7.47;4.20;;;;;;;11.87;100.00;98034.72;10518990;28;20040;-39
2024/04/01 01:59:36;;;;;;;9.18;4.70;;;;;;;11.85;100.00;98038.19;10519300;28;20039;-39
2024/04/01 02:04:37;;;;;;;8.88;4.97;;;;;;;11.85;100.00;98030.34;10516407;28;20516;-39
2024/04/01 02:09:38;;;;;;;9.27;4.75;;;;;;;11.81;100.00;98010.31;10517489;28;20051;-39
2024/04/01 02:14:39;;;;;;;10.35;5.35;;;;;;;11.82;100.00;98017.25;10513937;28;20126;-39
2024/04/01 02:19:42;;;;;;;10.50;4.82;;;;;;;11.80;100.00;98005.09;10495854;28;20140;-39
2024/04/01 02:24:42;;;;;;;9.25;5.30;;;;;;;11.79;100.00;97998.13;10512854;28;20040;-40
2024/04/01 02:29:43;;;;;;;10.73;5.82;;;;;;;11.73;100.00;98006.88;10517568;28;20093;-39
2024/04/01 02:34:44;;;;;;;13.45;6.50;;;;;;;11.70;100.00;98003.44;10519785;28;20036;-39
2024/04/01 02:39:44;;;;;;;14.00;6.93;;;;;;;11.65;100.00;98000.88;10519170;28;20028;-39
2024/04/01 02:44:45;;;;;;;12.70;6.55;;;;;;;11.63;100.00;97997.41;10514698;28;20040;-39
2024/04/01 02:49:46;;;;;;;13.73;6.43;;;;;;;11.61;100.00;97988.72;10519780;28;20036;-39
2024/04/01 02:54:46;;;;;;;12.75;6.35;;;;;;;11.50;100.00;97972.28;10533036;28;20466;-38
2024/04/01 02:59:48;;;;;;;11.10;6.07;;;;;;;11.42;100.00;97979.31;10532356;28;20059;-39
2024/04/01 03:04:48;;;;;;;13.75;5.90;;;;;;;11.40;100.00;97971.50;10528779;28;20040;-41
2024/04/01 03:09:53;;;;;;;9.15;4.72;;;;;;;11.32;100.00;97968.09;10530049;28;20051;-39
2024/04/01 03:14:54;;;;;;;9.02;4.40;;;;;;;11.32;100.00;97979.44;10510447;28;20528;-38
2024/04/01 03:19:55;;;;;;;7.82;4.20;;;;;;;11.36;100.00;97975.91;10528330;28;20036;-39
2024/04/01 03:24:56;;;;;;;10.18;4.40;;;;;;;11.21;100.00;97965.59;10526329;28;20040;-41
2024/04/01 03:29:57;;;;;;;9.07;4.90;;;;;;;10.97;100.00;97948.38;10525674;28;20039;-39
2024/04/01 03:34:58;;;;;;;14.43;6.45;;;;;;;10.74;100.00;97938.13;10522357;28;20032;-38
2024/04/01 03:39:58;;;;;;;11.75;5.80;;;;;;;10.77;100.00;97943.31;10522677;28;20117;-39
2024/04/01 03:44:59;;;;;;;11.00;5.60;;;;;;;10.71;100.00;97919.00;10522631;28;20057;-38
2024/04/01 03:50:00;;;;;;;10.27;5.32;;;;;;;10.64;100.00;97926.03;10520153;28;20039;-39
2024/04/01 03:55:00;;;;;;;10.43;5.57;;;;;;;10.29;100.00;97901.03;10519330;28;20040;-38
2024/04/01 04:00:01;;;;;;;10.27;4.68;;;;;;;10.22;100.00;97892.34;10518096;28;20033;-39
2024/04/01 04:05:02;;;;;;;9.60;4.93;;;;;;;10.52;100.00;97894.78;10518358;28;20047;-39
2024/04/01 04:10:03;;;;;;;9.75;5.57;;;;;;;10.67;100.00;97905.09;10511648;28;20560;-39
2024/04/01 04:15:04;;;;;;;11.13;5.70;;;;;;;10.74;100.00;97905.91;10516657;28;20578;-38
2024/04/01 04:20:05;;;;;;;11.38;6.10;;;;;;;10.72;100.00;97902.44;10512526;28;20035;-39
2024/04/01 04:25:06;;;;;;;11.45;6.05;;;;;;;10.69;100.00;97904.22;10514425;28;20415;-39
2024/04/01 04:30:12;;;;;;;11.45;6.20;;;;;;;10.61;100.00;97881.63;10510947;28;20181;-39
2024/04/01 04:35:13;;;;;;;12.13;7.07;;;;;;;10.46;100.00;97893.06;10521405;28;20032;-39
2024/04/01 04:40:14;;;;;;;12.65;7.43;;;;;;;10.47;100.00;97883.50;10529615;28;20165;-39
2024/04/01 04:45:16;;;;;;;17.10;9.32;;;;;;;10.40;100.00;97890.50;10528046;28;20044;-39
2024/04/01 04:50:20;;;;;;;14.30;8.93;;;;;;;10.35;100.00;97901.00;10526496;28;20039;-39
2024/04/01 04:55:22;;;;;;;15.48;8.65;;;;;;;10.33;100.00;97915.78;10525544;28;20061;-39
2024/04/01 05:00:23;;;;;;;14.18;8.68;;;;;;;10.34;100.00;97916.66;10524780;28;20040;-38
2024/04/01 05:05:25;;;;;;;15.43;8.30;;;;;;;10.36;100.00;97931.44;10523903;28;20032;-39
2024/04/01 05:10:26;;;;;;;15.02;7.97;;;;;;;10.40;100.00;97942.72;10521882;28;20043;-39
2024/04/01 05:15:27;;;;;;;14.05;7.90;;;;;;;10.40;100.00;97947.94;10522368;28;20040;-39
2024/04/01 05:20:28;;;;;;;12.32;7.72;;;;;;;10.39;100.00;97988.88;10519751;28;20028;-39
2024/04/01 05:25:29;;;;;;;12.63;7.30;;;;;;;10.39;100.00;98001.06;10520011;28;20513;-39
2024/04/01 05:30:30;;;;;;;12.23;7.10;;;;;;;10.31;100.00;98008.09;10517599;28;20040;-39
2024/04/01 05:35:33;;;;;;;8.65;5.47;;;;;;;10.17;100.00;98008.09;10517785;28;20036;-39
2024/04/01 05:40:34;;;;;;;12.60;6.53;;;;;;;10.10;100.00;98022.91;10497382;28;20036;-40
2024/04/01 05:45:35;;;;;;;13.93;6.93;;;;;;;9.94;100.00;98032.56;10512030;28;20040;-39
2024/04/01 05:50:35;;;;;;;12.73;6.80;;;;;;;9.79;100.00;98037.81;10495325;28;20077;-39
2024/04/01 05:55:40;;;;;;;11.38;6.30;;;;;;;9.97;100.00;98049.94;10509894;28;20610;-39
2024/04/01 06:00:40;;;;;;;13.13;6.85;;;;;;;9.89;100.00;98052.56;10511466;28;20036;-39
2024/04/01 06:05:41;;;;;;;15.23;5.88;;;;;;;9.95;100.00;98044.72;10514251;28;20040;-39
2024/04/01 06:10:41;;;;;;;13.82;5.43;;;;;;;9.97;100.00;98026.47;10517070;28;20040;-39
2024/04/01 06:15:43;;;;;;;9.80;5.20;;;;;;;9.85;100.00;98034.31;10515573;28;20125;-39
2024/04/01 06:20:44;;;;;;;10.38;5.28;;;;;;;9.56;100.00;98022.22;10527774;28;20473;-39
2024/04/01 06:25:46;;;;;;;10.45;5.82;;;;;;;9.65;100.00;98018.75;10530147;28;20037;-39
2024/04/01 06:30:47;;;;;;;9.50;5.70;;;;;;;9.52;100.00;98013.53;10533443;28;20093;-39
2024/04/01 06:35:58;;;;;;;11.57;5.45;;;;;;;9.45;100.00;97996.19;10528112;28;20035;-39
2024/04/01 06:40:59;;;;;;;10.82;4.85;;;;;;;9.43;100.00;98005.75;10528889;28;20063;-39
2024/04/01 06:46:00;;;;;;;9.75;4.55;;;;;;;9.53;100.00;98009.19;10528697;28;20040;-39
2024/04/01 06:51:01;;;;;;;6.13;4.10;;;;;;;9.65;100.00;98003.09;10526172;28;20040;-39
2024/04/01 06:56:03;;;;;;;7.85;4.00;;;;;;;9.45;100.00;98011.81;10527165;28;20036;-39
2024/04/01 07:01:04;;;;;;;7.53;4.22;;;;;;;9.71;100.00;98016.13;10499551;28;20097;-39
2024/04/01 07:06:05;;;;;;;9.25;4.45;;;;;;;10.03;100.00;98005.56;10525414;28;20047;-39
2024/04/01 07:11:05;;;;;;;6.68;4.15;;;;;;;10.23;100.00;98016.75;10519389;28;20036;-39
2024/04/01 07:16:06;;;;;;;7.15;4.40;;;;;;;10.40;100.00;98000.16;10521755;28;20494;-39
2024/04/01 07:21:07;;;;;;;4.32;3.20;;;;;;;10.49;100.00;98009.69;10494911;28;20105;-40
2024/04/01 07:26:09;;;;;;;4.68;2.45;;;;;;;10.57;100.00;98006.16;10481296;28;20038;-39
2024/04/01 07:31:11;;;;;;;4.32;2.47;;;;;;;10.74;100.00;98007.81;10508491;28;20044;-39
2024/04/01 07:36:12;;;;;;;3.67;2.00;;;;;;;10.79;100.00;97996.44;10501669;28;20041;-40
2024/04/01 07:41:13;;;;;;;3.97;1.90;;;;;;;10.79;100.00;97999.06;10516629;28;20422;-40
2024/04/01 07:46:13;;;;;;;4.53;2.15;;;;;;;10.49;100.00;97994.03;10514973;28;20036;-40
2024/04/01 07:51:14;;;;;;;3.92;2.30;;;;;;;10.11;100.00;98003.75;10519452;28;20058;-40
2024/04/01 07:56:15;;;;;;;5.43;2.13;;;;;;;10.32;100.00;98015.03;10512619;28;20044;-40
2024/04/01 08:01:16;;;;;;;4.97;2.40;;;;;;;10.36;100.00;98014.13;10510865;28;20060;-40
2024/04/01 08:06:17;;;;;;;2.40;1.60;;;;;;;10.27;100.00;98015.03;10525183;28;20443;-40
2024/04/01 08:11:18;;;;;;;3.30;1.55;;;;;;;10.26;100.00;98010.69;10530046;28;20040;-40
2024/04/01 08:16:18;;;;;;;3.28;1.60;;;;;;;10.13;100.00;98004.63;10528417;28;20036;-39
2024/04/01 08:21:19;;;;;;;3.65;1.75;;;;;;;10.15;100.00;98010.72;10525736;28;20032;-40
2024/04/01 08:26:20;;;;;;;5.25;2.10;;;;;;;10.05;100.00;98027.28;10525254;28;20497;-40
2024/04/01 08:31:20;;;;;;;6.93;2.30;;;;;;;10.21;100.00;98028.06;10525119;28;20033;-42
2024/04/01 08:36:21;;;;;;;3.75;2.38;;;;;;;10.13;100.00;98035.09;10524990;28;20040;-43
2024/04/01 08:41:34;;;;;;;6.78;3.00;;;;;;;9.81;100.00;98043.03;10523188;28;20785;-40
2024/04/01 08:46:35;;;;;;;9.60;4.05;;;;;;;9.84;100.00;98053.47;10521835;28;20464;-40
2024/04/01 08:51:36;;;;;;;8.35;4.65;;;;;;;9.89;100.00;98057.78;10485936;28;20039;-38
2024/04/01 08:56:41;;;;;;;9.45;4.80;;;;;;;9.91;100.00;98049.97;10519649;28;20051;-40
2024/04/01 09:01:42;;;;;;;7.28;4.97;;;;;;;9.78;100.00;98046.50;10518375;28;20045;-40
2024/04/01 09:06:43;;;;;;;9.15;5.78;;;;;;;9.88;100.00;98055.19;10481725;28;20429;-40
2024/04/01 09:11:43;;;;;;;10.45;6.63;;;;;;;9.68;100.00;98061.31;10501553;28;20037;-40
2024/04/01 09:16:44;;;;;;;10.82;6.70;;;;;;;9.70;100.00;98056.94;10514207;28;20036;-40
2024/04/01 09:21:50;;;;;;;10.35;6.60;;;;;;;9.72;100.00;98056.97;10513111;28;20115;-39
2024/04/01 09:26:51;;;;;;;9.50;7.05;;;;;;;9.67;100.00;98066.53;10514990;28;20123;-41
2024/04/01 09:31:52;;;;;;;10.88;7.40;;;;;;;9.61;100.00;98070.03;10510718;28;20040;-41
2024/04/01 09:36:52;;;;;;;14.68;8.45;;;;;;;9.80;100.00;98080.41;10511157;28;20123;-40
2024/04/01 09:41:53;;;;;;;14.68;9.43;;;;;;;9.67;100.00;98070.03;10519774;28;20043;-40
2024/04/01 09:46:54;;;;;;;16.70;9.50;;;;;;;9.66;100.00;98070.00;10516976;28;20044;-40
2024/04/01 09:51:55;;;;;;;14.43;8.77;;;;;;;9.54;100.00;98071.75;10535198;28;20040;-40
2024/04/01 09:57:33;;;;;;;10.75;6.20;;;;;;;9.63;100.00;98081.31;10535081;28;20508;-40
2024/04/01 10:02:56;;;;;;;9.63;6.60;;;;;;;9.49;100.00;98077.88;10528945;28;20024;-40
2024/04/01 10:08:34;;;;;;;9.75;6.18;;;;;;;9.44;100.00;98083.06;10513704;28;20490;-40
2024/04/01 10:13:54;;;;;;;11.43;6.93;;;;;;;9.59;100.00;98099.59;10528790;28;20036;-40
2024/04/01 10:19:16;;;;;;;14.32;9.23;;;;;;;9.80;100.00;98106.50;10510964;28;20410;-40
2024/04/01 10:24:44;;;;;;;17.13;10.80;;;;;;;9.77;100.00;98100.44;10510481;28;20036;-39
2024/04/01 10:29:55;;;;;;;;;;;;;;;9.77;100.00;98091.75;10515404;28;20045;-40
2024/04/01 10:35:31;;;;;;;21.63;13.15;;;;;;;9.80;100.00;98111.72;10496197;28;19920;-40
2024/04/01 10:40:56;;;;;;;28.75;16.00;;;;;;;9.83;100.00;98117.81;10510409;28;20040;-40
2024/04/01 10:46:18;;;;;;;29.67;17.60;;;;;;;9.58;100.00;98110.88;10497656;28;20051;-40
2024/04/01 10:51:54;;;;;;;36.28;19.40;;;;;;;9.68;100.00;98102.19;10508917;28;20036;-40
2024/04/01 10:57:11;;;;;;;35.88;20.08;;;;;;;9.61;100.00;98111.75;10511623;28;20405;-40
2024/04/01 11:02:17;;;;;;;39.78;22.08;;;;;;;9.74;100.00;98123.91;10511752;28;20100;-40
2024/04/01 11:07:37;;;;;;;39.55;21.83;;;;;;;9.76;100.00;98127.38;10510359;28;20052;-40
2024/04/01 11:13:03;;;;;;;39.53;22.95;;;;;;;9.85;100.00;98136.94;10495114;28;20309;-40
2024/04/01 11:18:26;;;;;;;30.40;18.80;;;;;;;9.65;100.00;98133.50;10514282;28;20044;-40
2024/04/01 11:23:49;;;;;;;30.50;19.90;;;;;;;9.61;100.00;98134.34;10511550;28;20036;-40
2024/04/01 11:29:12;;;;;;;31.55;20.15;;;;;;;9.62;100.00;98142.19;10511608;28;20040;-40
2024/04/01 11:34:19;;;;;;;29.75;18.50;;;;;;;9.54;100.00;98151.72;10495404;28;20557;-41
2024/04/01 11:39:19;;;;;;;25.17;16.05;;;;;;;9.40;100.00;98161.28;10511624;28;20390;-41
2024/04/01 11:44:22;;;;;;;23.35;15.32;;;;;;;9.34;100.00;98167.38;10497272;28;20044;-37
2024/04/01 11:49:23;;;;;;;17.77;12.20;;;;;;;9.33;100.00;98198.66;10513041;28;20406;-38
2024/04/01 11:54:26;;;;;;;14.25;10.75;;;;;;;9.21;100.00;98215.13;10516005;28;20036;-40
2024/04/01 11:59:31;;;;;;;13.63;9.38;;;;;;;9.16;100.00;98204.69;10516638;28;20043;-41
2024/04/01 12:04:32;;;;;;;14.02;9.68;;;;;;;9.23;100.00;98200.38;10517932;28;20036;-40
2024/04/01 12:09:32;;;;;;;13.50;8.75;;;;;;;9.28;100.00;98209.06;10500064;28;20043;-40
2024/04/01 12:14:34;;;;;;;12.02;8.80;;;;;;;9.17;100.00;98209.06;10469145;28;20036;-40
2024/04/01 12:19:36;;;;;;;11.95;8.93;;;;;;;9.36;100.00;98222.13;10472259;28;20139;-39
2024/04/01 12:24:36;;;;;;;11.65;8.38;;;;;;;9.52;100.00;98229.09;10505674;28;20047;-40
2024/04/01 12:29:37;;;;;;;11.70;7.85;;;;;;;9.45;100.00;98236.06;10487323;28;20525;-40
2024/04/01 12:34:41;;;;;;;10.88;7.90;;;;;;;9.25;100.00;98263.78;10489656;28;20040;-40
2024/04/01 12:39:48;;;;;;;13.90;9.02;;;;;;;9.21;100.00;98268.13;10490268;28;20039;-40
2024/04/01 12:44:49;;;;;;;17.15;11.38;;;;;;;9.08;100.00;98274.16;10508521;28;20033;-40
2024/04/01 12:49:49;;;;;;;22.45;12.95;;;;;;;9.07;100.00;98291.53;10470862;28;20492;-40
2024/04/01 12:54:56;;;;;;;21.20;13.45;;;;;;;9.13;100.00;98306.31;10500324;28;20040;-40
2024/04/01 13:00:06;;;;;;;21.42;13.85;;;;;;;8.99;100.00;98314.06;10482734;28;20040;-40
2024/04/01 13:05:25;;;;;;;22.35;14.18;;;;;;;9.08;100.00;98318.47;10498730;28;20041;-40
2024/04/01 13:10:27;;;;;;;25.05;15.82;;;;;;;8.98;100.00;98325.38;10479570;28;20028;-40
2024/04/01 13:15:40;;;;;;;27.23;17.75;;;;;;;9.06;100.00;98328.88;10496504;28;20048;-40
2024/04/01 13:21:03;;;;;;;33.17;20.27;;;;;;;8.92;100.00;98327.94;10503156;28;20145;-40
2024/04/01 13:26:09;;;;;;;34.33;20.73;;;;;;;8.88;100.00;98347.03;10502346;28;20195;-40
2024/04/01 13:31:52;;;;;;;40.80;22.30;;;;;;;8.95;100.00;98361.81;10504650;28;20039;-40
2024/04/01 13:37:15;;;;;;;42.80;24.25;;;;;;;9.10;100.00;98361.00;10495836;28;20040;-43
2024/04/01 13:42:31;;;;;;;40.38;23.40;;;;;;;8.98;100.00;98367.06;10507219;28;20043;-37
2024/04/01 13:48:09;;;;;;;43.15;23.52;;;;;;;8.91;100.00;98367.00;10504295;28;20404;-39
2024/04/01 13:53:22;;;;;;;49.15;26.73;;;;;;;8.95;100.00;98373.97;10485154;28;20060;-39
2024/04/01 13:58:36;;;;;;;53.05;28.70;;;;;;;9.10;100.00;98381.84;10484176;28;20033;-39
2024/04/01 14:04:16;;;;;;;55.35;29.30;;;;;;;9.11;100.00;98395.78;10502456;28;20045;-40
2024/04/01 14:09:38;;;;;;;55.80;29.20;;;;;;;9.28;100.00;98381.09;10459602;28;20120;-40
2024/04/01 14:14:51;;;;;;;50.63;27.48;;;;;;;9.22;100.00;98379.31;10504795;28;20040;-40
2024/04/01 14:20:14;;;;;;;51.97;27.88;;;;;;;9.37;100.00;98386.34;10507251;28;20048;-39
2024/04/01 14:25:15;;;;;;;58.88;31.10;;;;;;;9.36;100.00;98397.66;10509743;28;20051;-40
2024/04/01 14:30:15;;;;;;;58.38;31.08;;;;;;;9.40;100.00;98402.00;10512354;28;20036;-39
2024/04/01 14:35:16;;;;;;;58.03;30.63;;;;;;;9.35;100.00;98403.72;10490804;28;20099;-39
2024/04/01 14:40:17;;;;;;;47.53;27.02;;;;;;;9.26;100.00;98416.69;10490574;28;20551;-40
2024/04/01 14:45:17;;;;;;;33.35;18.60;;;;;;;9.18;100.00;98413.19;10507773;28;20071;-39
2024/04/01 14:50:18;;;;;;;25.50;15.27;;;;;;;9.03;100.00;98419.19;10470080;28;20545;-40
2024/04/01 14:55:19;;;;;;;22.50;12.80;;;;;;;8.93;100.00;98426.06;10483187;28;20036;-39
2024/04/01 15:00:21;;;;;;;22.73;12.85;;;;;;;8.94;100.00;98433.00;10502721;28;20041;-39
2024/04/01 15:05:24;;;;;;;26.60;15.10;;;;;;;8.98;100.00;98441.75;10509129;28;20037;-38
2024/04/01 15:10:25;;;;;;;24.55;14.40;;;;;;;9.01;100.00;98440.03;10509024;28;20042;-40
2024/04/01 15:15:26;;;;;;;22.38;12.93;;;;;;;9.00;100.00;98456.50;10511090;28;20040;-39
2024/04/01 15:20:27;;;;;;;21.02;11.63;;;;;;;9.06;100.00;98458.28;10493465;28;20072;-38
2024/04/01 15:25:29;;;;;;;18.88;9.50;;;;;;;9.15;100.00;98458.34;10475899;28;20052;-38
2024/04/01 15:30:32;;;;;;;19.35;8.80;;;;;;;9.14;100.00;98459.22;10493170;28;20052;-40
2024/04/01 15:35:34;;;;;;;12.80;7.82;;;;;;;9.21;100.00;98467.94;10501652;28;20442;-40
2024/04/01 15:40:35;;;;;;;12.50;7.68;;;;;;;9.26;100.00;98471.44;10494512;28;20056;-41
2024/04/01 15:45:37;;;;;;;12.85;7.38;;;;;;;9.25;100.00;98474.91;10508306;28;20040;-38
2024/04/01 15:50:38;;;;;;;13.95;7.30;;;;;;;9.29;100.00;98474.06;10493479;28;20044;-39
2024/04/01 15:55:45;;;;;;;12.48;6.38;;;;;;;9.22;100.00;98487.94;10511839;28;20086;-42
2024/04/01 16:00:48;;;;;;;10.35;5.63;;;;;;;9.29;100.00;98476.66;10512919;28;20757;-40
2024/04/01 16:05:52;;;;;;;10.57;6.20;;;;;;;9.37;100.00;98484.56;10511488;28;20071;-39
2024/04/01 16:10:53;;;;;;;12.88;6.07;;;;;;;9.38;100.00;98481.06;10491600;28;20058;-39
2024/04/01 16:15:53;;;;;;;11.40;6.30;;;;;;;9.38;100.00;98487.16;10506300;28;20047;-40
2024/04/01 16:20:55;;;;;;;10.20;6.13;;;;;;;9.34;100.00;98490.63;10507152;28;20089;-41
2024/04/01 16:25:57;;;;;;;10.65;6.07;;;;;;;9.43;100.00;98492.41;10505514;28;20043;-38
2024/04/01 16:31:00;;;;;;;10.63;5.80;;;;;;;9.41;100.00;98494.13;10502795;28;20481;-40
2024/04/01 16:36:00;;;;;;;10.00;6.40;;;;;;;9.49;100.00;98495.94;10499284;28;20394;-41
2024/04/01 16:41:01;;;;;;;10.32;5.80;;;;;;;9.46;100.00;98508.94;10498830;28;20037;-40
2024/04/01 16:46:02;;;;;;;12.77;6.20;;;;;;;9.39;100.00;98514.13;10485631;28;20048;-39
2024/04/01 16:51:02;;;;;;;11.00;5.57;;;;;;;9.38;100.00;98514.97;10506917;28;20035;-41
2024/04/01 16:56:04;;;;;;;8.93;5.47;;;;;;;9.38;100.00;98518.44;10508221;28;20032;-41
2024/04/01 17:01:07;;;;;;;9.30;5.28;;;;;;;9.38;100.00;98517.56;10508646;28;20036;-39
2024/04/01 17:06:08;;;;;;;9.05;5.03;;;;;;;9.41;100.00;98517.59;10506390;28;20123;-39
2024/04/01 17:11:10;;;;;;;8.02;4.55;;;;;;;9.43;100.00;98526.31;10505360;28;20044;-40
2024/04/01 17:16:11;;;;;;;11.70;4.43;;;;;;;9.35;100.00;98528.84;10505269;28;20048;-42
2024/04/01 17:21:15;;;;;;;7.50;4.18;;;;;;;9.35;100.00;98534.06;10497456;28;20687;-41
2024/04/01 17:26:15;;;;;;;8.15;4.50;;;;;;;9.33;100.00;98529.72;10486242;28;20044;-40
2024/04/01 17:31:16;;;;;;;7.43;4.30;;;;;;;9.32;100.00;98527.97;10503159;28;20036;-41
2024/04/01 17:36:16;;;;;;;10.20;4.30;;;;;;;9.34;100.00;98527.13;10467457;28;20452;-38
2024/04/01 17:41:17;;;;;;;10.25;4.55;;;;;;;9.34;100.00;98528.84;10522562;28;20044;-39
2024/04/01 17:46:18;;;;;;;6.63;4.75;;;;;;;9.30;100.00;98527.97;10516521;28;20064;-39
2024/04/01 17:51:20;;;;;;;12.32;5.20;;;;;;;9.23;100.00;98526.19;10492269;28;20048;-40
2024/04/01 17:56:21;;;;;;;8.30;4.95;;;;;;;9.14;100.00;98526.97;10516681;28;20082;-41
2024/04/01 18:01:21;;;;;;;9.85;4.93;;;;;;;9.12;100.00;98540.84;10520865;28;20040;-39
2024/04/01 18:06:22;;;;;;;9.77;4.68;;;;;;;9.11;100.00;98547.81;10518030;28;20052;-37
2024/04/01 18:11:23;;;;;;;10.50;5.03;;;;;;;9.10;100.00;98543.44;10523571;28;20033;-39
2024/04/01 18:16:23;;;;;;;14.00;6.05;;;;;;;9.13;100.00;98558.22;10518796;28;20036;-40
2024/04/01 18:21:24;;;;;;;13.38;6.15;;;;;;;9.21;100.00;98560.03;10519066;28;20114;-40
2024/04/01 18:26:25;;;;;;;8.20;4.68;;;;;;;9.17;100.00;98578.25;10515473;28;20071;-41
2024/04/01 18:31:52;;;;;;;7.18;4.43;;;;;;;9.19;100.00;98585.22;10439711;28;20040;-41
2024/04/01 18:37:08;;;;;;;8.73;4.50;;;;;;;9.12;100.00;98585.16;10476615;28;20040;-40
2024/04/01 18:42:08;;;;;;;7.13;4.40;;;;;;;9.06;100.00;98591.19;10507931;28;20097;-40
2024/04/01 18:47:10;;;;;;;20.13;11.02;;;;;;;9.07;100.00;98601.63;10533933;28;20440;-39
2024/04/01 18:52:25;;;;;;;10.85;7.38;;;;;;;9.05;100.00;98610.28;10530485;28;20036;-39
2024/04/01 18:57:26;;;;;;;11.38;6.47;;;;;;;8.99;100.00;98611.09;10526527;28;20035;-40
2024/04/01 19:02:26;;;;;;;13.85;8.73;;;;;;;8.99;100.00;98615.44;10528150;28;20035;-43
2024/04/01 19:07:27;;;;;;;10.02;5.70;;;;;;;8.92;100.00;98609.31;10535812;28;20047;-41
2024/04/01 19:12:27;;;;;;;9.25;6.38;;;;;;;8.91;100.00;98615.38;10529106;28;20382;-40
2024/04/01 19:17:28;;;;;;;11.25;5.47;;;;;;;8.92;100.00;98614.50;10529419;28;20516;-41
2024/04/01 19:22:29;;;;;;;11.82;8.40;;;;;;;8.90;100.00;98613.59;10545065;28;20039;-42
2024/04/01 19:27:30;;;;;;;9.60;6.20;;;;;;;8.91;100.00;98614.47;10535491;28;20036;-41
2024/04/01 19:32:30;;;;;;;11.27;6.70;;;;;;;8.93;100.00;98625.81;10534788;28;20047;-39
2024/04/01 19:37:31;;;;;;;11.00;6.50;;;;;;;8.91;100.00;98617.97;10528986;28;20037;-40
2024/04/01 19:42:32;;;;;;;8.05;5.80;;;;;;;8.87;100.00;98624.00;10519094;28;20073;-39
2024/04/01 19:47:32;;;;;;;8.13;5.22;;;;;;;8.87;100.00;98616.19;10523390;28;20442;-40
2024/04/01 19:52:33;;;;;;;10.18;5.57;;;;;;;8.91;100.00;98625.81;10546345;28;20040;-40
2024/04/01 19:57:35;;;;;;;9.20;5.43;;;;;;;8.92;100.00;98614.50;10540381;28;20043;-40
2024/04/01 20:02:35;;;;;;;8.38;5.82;;;;;;;8.90;100.00;98611.00;10531679;28;20029;-40
2024/04/01 20:07:36;;;;;;;10.15;5.93;;;;;;;8.84;100.00;98617.03;10530774;28;20047;-39
2024/04/01 20:12:40;;;;;;;7.53;5.20;;;;;;;8.86;100.00;98613.56;10534903;28;20519;-40
2024/04/01 20:17:40;;;;;;;6.97;4.80;;;;;;;8.83;100.00;98617.88;10494899;28;20042;-39
2024/04/01 20:22:41;;;;;;;7.03;4.50;;;;;;;8.82;100.00;98607.47;10528949;28;20405;-41
2024/04/01 20:27:42;;;;;;;5.80;4.03;;;;;;;8.83;100.00;98609.19;10523661;28;20557;-40
2024/04/01 20:32:43;;;;;;;7.25;3.90;;;;;;;8.83;100.00;98604.88;10527628;28;20520;-40
2024/04/01 20:37:44;;;;;;;5.45;3.95;;;;;;;8.77;100.00;98602.19;10526638;28;20036;-39
2024/04/01 20:42:45;;;;;;;7.22;3.92;;;;;;;8.77;100.00;98615.22;10524539;28;20100;-40
2024/04/01 20:47:46;;;;;;;7.47;4.05;;;;;;;8.75;100.00;98616.94;10524242;28;20524;-42
2024/04/01 20:52:55;;;;;;;9.30;4.45;;;;;;;8.76;100.00;98615.22;10521947;28;20468;-41
2024/04/01 20:57:56;;;;;;;6.25;4.55;;;;;;;8.69;100.00;98621.19;10521588;28;20114;-39
2024/04/01 21:02:56;;;;;;;6.80;4.03;;;;;;;8.75;100.00;98626.47;10502048;28;20066;-42
2024/04/01 21:07:58;;;;;;;6.63;4.00;;;;;;;8.72;100.00;98629.94;10501463;28;20047;-45
2024/04/01 21:12:59;;;;;;;5.57;3.80;;;;;;;8.78;100.00;98635.19;10513444;28;20039;-42
2024/04/01 21:18:00;;;;;;;7.38;3.70;;;;;;;8.83;100.00;98640.47;10517707;28;20044;-40
2024/04/01 21:23:01;;;;;;;7.03;3.70;;;;;;;8.92;100.00;98650.13;10516402;28;20048;-41
2024/04/01 21:28:02;;;;;;;8.10;3.40;;;;;;;8.97;100.00;98644.06;10516319;28;20045;-40
2024/04/01 21:33:03;;;;;;;5.60;3.40;;;;;;;9.02;100.00;98665.84;10516213;28;20052;-38
2024/04/01 21:38:04;;;;;;;5.25;3.50;;;;;;;9.05;100.00;98662.41;10522049;28;20039;-39
2024/04/01 21:43:05;;;;;;;4.68;3.22;;;;;;;9.10;100.00;98670.25;10520070;28;20032;-39
2024/04/01 21:48:06;;;;;;;7.78;3.50;;;;;;;9.12;100.00;98665.94;10519245;28;20048;-41
2024/04/01 21:53:06;;;;;;;8.15;3.67;;;;;;;9.09;100.00;98679.81;10517434;28;20028;-41
2024/04/01 21:58:07;;;;;;;5.10;3.03;;;;;;;9.09;100.00;98679.81;10515209;28;20484;-40
2024/04/01 22:03:08;;;;;;;6.30;3.13;;;;;;;9.12;100.00;98681.59;10524471;28;20401;-39
2024/04/01 22:08:10;;;;;;;6.03;3.10;;;;;;;9.14;100.00;98692.91;10535812;28;20074;-39
2024/04/01 22:13:10;;;;;;;4.97;3.10;;;;;;;9.14;100.00;98692.91;10534047;28;20038;-40
2024/04/01 22:18:11;;;;;;;6.18;3.25;;;;;;;9.13;100.00;98696.34;10532176;28;20051;-40
2024/04/01 22:23:12;;;;;;;6.63;3.10;;;;;;;9.11;100.00;98698.09;10531779;28;20035;-37
2024/04/01 22:28:12;;;;;;;6.75;3.33;;;;;;;9.07;100.00;98703.28;10531020;28;20568;-40
2024/04/01 22:33:13;;;;;;;7.28;3.30;;;;;;;9.09;100.00;98708.47;10524408;28;20039;-39
2024/04/01 22:38:14;;;;;;;4.72;3.00;;;;;;;9.11;100.00;98706.78;10529683;28;20071;-41
2024/04/01 22:43:15;;;;;;;4.60;2.92;;;;;;;9.13;100.00;98719.81;10527343;28;20032;-38
2024/04/01 22:48:16;;;;;;;5.70;2.90;;;;;;;9.11;100.00;98724.16;10526835;28;20476;-40
2024/04/01 22:53:17;;;;;;;5.38;2.70;;;;;;;9.09;100.00;98725.84;10525285;28;20065;-40
2024/04/01 22:58:17;;;;;;;5.38;3.00;;;;;;;9.07;100.00;98726.72;10523981;28;21318;-40
2024/04/01 23:03:18;;;;;;;7.40;3.17;;;;;;;9.02;100.00;98730.13;10524389;28;20059;-39
2024/04/01 23:08:19;;;;;;;6.05;2.75;;;;;;;8.98;100.00;98737.03;10522189;28;20063;-39
2024/04/01 23:13:19;;;;;;;6.28;2.97;;;;;;;8.97;100.00;98739.59;10519903;28;20051;-39
2024/04/01 23:18:20;;;;;;;4.53;2.80;;;;;;;8.95;100.00;98751.75;10517665;28;20036;-39